Time;durP1;ratioP1;P1;durP2;ratioP2;P2;SDS_P1;SDS_P2;PMS_P1;PMS_P2;Temp;Humidity;BMP_temperature;BMP_pressure;BME280_temperature;BME280_humidity;BME280_pressure;Samples;Min_cycle;Max_cycle;Signal;HPM_P1;HPM_P2
2021/12/22 00:02:29;;;;;;;4.05;3.65;;;23.00;25.80;;;;;;5128646;27;47395;-19
2021/12/22 00:04:56;;;;;;;4.18;3.67;;;23.10;25.90;;;;;;5128728;27;46962;-19
2021/12/22 00:07:23;;;;;;;4.18;3.40;;;23.10;25.80;;;;;;5129102;27;47153;-19
2021/12/22 00:09:50;;;;;;;3.53;3.22;;;23.10;25.80;;;;;;5128614;27;48234;-19
2021/12/22 00:12:16;;;;;;;4.25;3.55;;;23.10;25.80;;;;;;5128655;27;47387;-19
2021/12/22 00:14:43;;;;;;;4.05;3.65;;;23.10;25.80;;;;;;5128667;27;46956;-19
2021/12/22 00:17:10;;;;;;;3.83;3.30;;;23.10;25.70;;;;;;5128799;27;46939;-19
2021/12/22 00:19:38;;;;;;;3.90;3.60;;;23.20;25.80;;;;;;5128262;27;48202;-18
2021/12/22 00:22:04;;;;;;;3.55;3.25;;;23.20;25.80;;;;;;5128545;27;46901;-19
2021/12/22 00:24:33;;;;;;;4.05;3.65;;;23.10;25.70;;;;;;5128189;27;46829;-19
2021/12/22 00:27:00;;;;;;;4.15;3.78;;;23.20;25.70;;;;;;5128383;27;46967;-19
2021/12/22 00:29:27;;;;;;;3.75;3.40;;;23.20;25.70;;;;;;5127870;27;47845;-19
2021/12/22 00:32:09;;;;;;;3.78;3.47;;;23.20;25.70;;;;;;5128454;27;46940;-19
2021/12/22 00:34:45;;;;;;;3.85;3.55;;;23.20;25.70;;;;;;5128020;27;46861;-19
2021/12/22 00:37:12;;;;;;;3.67;3.35;;;23.20;26.20;;;;;;5128622;27;46894;-19
2021/12/22 00:39:39;;;;;;;4.35;3.95;;;23.20;25.70;;;;;;5127958;27;49210;-19
2021/12/22 00:42:06;;;;;;;5.47;3.90;;;23.20;25.60;;;;;;5127929;27;46737;-19
2021/12/22 00:44:32;;;;;;;3.55;3.25;;;23.20;26.20;;;;;;5127570;27;46900;-18
2021/12/22 00:46:59;;;;;;;4.00;3.60;;;23.20;25.60;;;;;;5128240;27;47185;-29
2021/12/22 00:49:26;;;;;;;3.80;3.50;;;23.20;25.70;;;;;;5127812;27;47108;-29
2021/12/22 00:51:54;;;;;;;3.92;3.53;;;23.20;25.60;;;;;;5127846;27;46869;-29
2021/12/22 00:54:20;;;;;;;4.47;3.90;;;23.20;25.70;;;;;;5127818;27;46935;-29
2021/12/22 00:56:47;;;;;;;3.80;3.50;;;23.20;25.70;;;;;;5127928;27;46891;-29
2021/12/22 00:59:14;;;;;;;3.60;3.30;;;23.20;25.60;;;;;;5128137;27;46870;-29
2021/12/22 01:01:40;;;;;;;3.72;3.42;;;23.30;25.60;;;;;;5127676;27;47240;-28
2021/12/22 01:04:07;;;;;;;4.18;3.40;;;23.30;25.60;;;;;;5127519;27;46997;-29
2021/12/22 01:06:35;;;;;;;3.78;3.47;;;23.30;25.60;;;;;;5127865;27;46940;-28
2021/12/22 01:09:03;;;;;;;4.25;3.75;;;23.30;25.60;;;;;;5127554;27;48742;-19
2021/12/22 01:11:30;;;;;;;3.70;3.13;;;23.20;25.50;;;;;;5127290;27;46931;-18
2021/12/22 01:13:57;;;;;;;4.05;3.67;;;23.20;25.50;;;;;;5127609;27;47004;-18
2021/12/22 01:16:23;;;;;;;3.80;3.40;;;23.20;25.60;;;;;;5127875;27;47009;-19
2021/12/22 01:18:51;;;;;;;3.83;3.53;;;23.20;25.50;;;;;;5127477;27;47935;-19
2021/12/22 01:21:23;;;;;;;4.03;3.63;;;23.20;25.50;;;;;;5127406;27;46883;-19
2021/12/22 01:24:01;;;;;;;3.40;3.10;;;23.20;26.10;;;;;;5127596;27;46730;-19
2021/12/22 01:26:30;;;;;;;4.25;3.83;;;23.20;25.60;;;;;;5127819;27;46826;-18
2021/12/22 01:28:57;;;;;;;3.60;3.30;;;23.10;25.60;;;;;;5127190;27;49055;-19
2021/12/22 01:31:24;;;;;;;3.85;3.45;;;23.10;25.60;;;;;;5127439;27;47018;-19
2021/12/22 01:33:51;;;;;;;3.63;3.33;;;23.10;25.60;;;;;;5127390;27;46961;-19
2021/12/22 01:36:18;;;;;;;4.65;3.70;;;23.20;25.60;;;;;;5127556;27;47354;-20
2021/12/22 01:38:44;;;;;;;3.83;3.53;;;23.20;25.60;;;;;;5127355;27;47077;-19
2021/12/22 01:41:11;;;;;;;3.63;3.33;;;23.20;25.50;;;;;;5127097;27;46992;-19
2021/12/22 01:43:39;;;;;;;3.17;2.88;;;23.20;25.50;;;;;;5127315;27;48062;-19
2021/12/22 01:46:31;;;;;;;3.75;3.45;;;23.20;25.50;;;;;;5127634;27;46883;-19
2021/12/22 01:49:10;;;;;;;3.78;3.25;;;23.20;25.50;;;;;;5126845;27;46944;-19
2021/12/22 01:51:40;;;;;;;3.92;3.53;;;23.20;25.50;;;;;;5127298;27;46936;-19
2021/12/22 01:54:08;;;;;;;3.55;3.25;;;23.20;25.40;;;;;;5126758;27;47013;-19
2021/12/22 01:56:35;;;;;;;3.60;3.30;;;23.20;25.50;;;;;;5127039;27;47212;-19
2021/12/22 01:59:05;;;;;;;3.35;3.08;;;23.20;25.40;;;;;;5126776;27;48847;-18
2021/12/22 02:01:33;;;;;;;3.80;3.50;;;23.20;25.40;;;;;;5126806;27;46905;-19
2021/12/22 02:04:00;;;;;;;4.10;3.38;;;23.20;25.40;;;;;;5126959;27;47052;-18
2021/12/22 02:06:26;;;;;;;3.78;3.40;;;23.20;25.40;;;;;;5126915;27;47179;-19
2021/12/22 02:08:54;;;;;;;3.90;3.55;;;23.20;25.40;;;;;;5126841;27;47945;-19
2021/12/22 02:11:21;;;;;;;4.07;3.40;;;23.20;25.40;;;;;;5126937;27;47482;-18
2021/12/22 02:13:54;;;;;;;4.07;3.67;;;23.20;25.40;;;;;;5126626;27;46922;-19
2021/12/22 02:16:26;;;;;;;3.70;3.40;;;23.20;25.40;;;;;;5127014;27;46837;-19
2021/12/22 02:18:54;;;;;;;3.88;3.47;;;23.20;25.40;;;;;;5126698;27;47923;-19
2021/12/22 02:21:24;;;;;;;4.03;3.63;;;23.20;25.30;;;;;;5126433;27;46980;-19
2021/12/22 02:23:51;;;;;;;4.47;3.83;;;23.30;25.30;;;;;;5125686;27;46954;-18
2021/12/22 02:26:22;;;;;;;3.72;3.35;;;23.20;25.30;;;;;;5126883;27;47110;-19
2021/12/22 02:28:57;;;;;;;3.63;3.33;;;23.20;25.30;;;;;;5126726;27;48110;-19
2021/12/22 02:31:24;;;;;;;3.70;3.40;;;23.20;25.30;;;;;;5126830;27;47192;-19
2021/12/22 02:33:51;;;;;;;3.88;3.58;;;23.20;25.20;;;;;;5126224;27;46896;-19
2021/12/22 02:36:23;;;;;;;3.60;3.30;;;23.20;25.20;;;;;;5126755;27;46805;-19
2021/12/22 02:38:52;;;;;;;3.63;3.30;;;23.20;25.30;;;;;;5126201;27;48881;-19
2021/12/22 02:41:19;;;;;;;3.58;3.28;;;23.20;25.30;;;;;;5126517;27;47131;-19
2021/12/22 02:43:48;;;;;;;4.00;3.58;;;23.20;25.20;;;;;;5126044;27;46909;-19
2021/12/22 02:46:16;;;;;;;3.80;3.50;;;23.20;25.20;;;;;;5126489;27;46917;-19
2021/12/22 02:48:44;;;;;;;3.83;3.50;;;23.20;25.30;;;;;;5126128;27;47965;-20
2021/12/22 02:51:11;;;;;;;4.28;3.88;;;23.10;25.20;;;;;;5126070;27;46890;-29
2021/12/22 02:53:42;;;;;;;4.22;3.75;;;23.10;25.20;;;;;;5126333;27;46910;-29
2021/12/22 02:59:03;;;;;;;3.33;2.92;;;23.10;25.30;;;;;;5125517;27;48103;-29
2021/12/22 03:02:05;;;;;;;3.80;3.50;;;23.10;25.20;;;;;;5126029;27;46894;-29
2021/12/22 03:04:32;;;;;;;4.00;3.60;;;23.10;25.20;;;;;;5125862;27;46866;-29
2021/12/22 03:07:02;;;;;;;4.13;3.70;;;23.10;25.20;;;;;;5126538;27;46949;-19
2021/12/22 03:09:30;;;;;;;4.10;3.72;;;23.10;25.20;;;;;;5126284;27;49073;-18
2021/12/22 03:11:59;;;;;;;3.97;3.67;;;23.10;25.20;;;;;;5126206;27;46812;-29
2021/12/22 03:14:26;;;;;;;4.72;3.97;;;23.10;25.10;;;;;;5126041;27;46849;-29
2021/12/22 03:16:53;;;;;;;4.20;3.80;;;23.10;25.10;;;;;;5125888;27;47281;-29
2021/12/22 03:19:20;;;;;;;3.67;3.38;;;23.10;25.10;;;;;;5125566;27;47964;-29
2021/12/22 03:21:48;;;;;;;4.25;3.92;;;23.10;25.20;;;;;;5125976;27;46904;-29
2021/12/22 03:24:15;;;;;;;4.20;3.80;;;23.10;25.10;;;;;;5125898;27;46891;-18
2021/12/22 03:26:43;;;;;;;3.92;3.53;;;23.10;25.10;;;;;;5125948;27;47036;-19
2021/12/22 03:29:12;;;;;;;3.63;3.33;;;23.10;25.10;;;;;;5125734;27;46946;-29
2021/12/22 03:31:39;;;;;;;4.30;3.90;;;23.10;25.10;;;;;;5125963;27;47478;-29
2021/12/22 03:34:06;;;;;;;4.00;3.60;;;23.10;25.10;;;;;;5126773;27;46741;-29
2021/12/22 03:36:33;;;;;;;6.68;3.85;;;23.10;25.10;;;;;;5129605;27;47315;-29
2021/12/22 03:38:59;;;;;;;4.30;3.90;;;23.10;25.10;;;;;;5128961;27;48160;-30
2021/12/22 03:41:26;;;;;;;3.88;3.53;;;23.10;25.10;;;;;;5129253;27;46826;-29
2021/12/22 03:43:53;;;;;;;3.80;3.50;;;23.10;25.00;;;;;;5128634;27;46917;-29
2021/12/22 03:46:21;;;;;;;4.05;3.60;;;23.10;25.10;;;;;;5129584;27;46886;-19
2021/12/22 03:48:47;;;;;;;3.97;3.60;;;23.10;25.00;;;;;;5128934;27;49090;-19
2021/12/22 03:51:14;;;;;;;4.03;3.60;;;23.10;25.00;;;;;;5129082;27;46832;-19
2021/12/22 03:53:41;;;;;;;4.75;3.72;;;23.10;25.00;;;;;;5129123;27;46922;-18
2021/12/22 03:56:07;;;;;;;4.60;4.15;;;23.10;25.00;;;;;;5128996;27;46893;-19
2021/12/22 03:58:34;;;;;;;4.20;3.80;;;23.00;25.00;;;;;;5128491;27;47936;-18
2021/12/22 04:01:01;;;;;;;4.55;4.07;;;23.00;25.00;;;;;;5128870;27;46750;-19
2021/12/22 04:03:32;;;;;;;4.28;3.60;;;23.00;25.00;;;;;;5128892;27;46968;-18
2021/12/22 04:05:59;;;;;;;4.00;3.60;;;23.00;25.00;;;;;;5129069;27;47037;-18
2021/12/22 04:08:26;;;;;;;4.03;3.67;;;23.00;25.00;;;;;;5128767;27;47936;-18
2021/12/22 04:10:53;;;;;;;3.83;3.50;;;23.00;25.00;;;;;;5128587;27;46925;-29
2021/12/22 04:13:20;;;;;;;3.88;3.58;;;23.00;25.00;;;;;;5128542;27;46809;-18
2021/12/22 04:15:46;;;;;;;4.45;3.58;;;23.00;25.00;;;;;;5128602;27;47351;-19
2021/12/22 04:18:13;;;;;;;3.50;3.20;;;23.00;25.00;;;;;;5128202;27;46789;-18
2021/12/22 04:20:41;;;;;;;3.78;3.45;;;23.00;25.00;;;;;;5128556;27;46909;-18
2021/12/22 04:23:08;;;;;;;3.78;3.47;;;23.00;25.00;;;;;;5128386;27;46873;-29
2021/12/22 04:25:36;;;;;;;4.25;3.85;;;23.00;24.90;;;;;;5128333;27;47327;-18
2021/12/22 04:28:05;;;;;;;4.10;3.70;;;23.00;25.40;;;;;;5128412;27;49032;-18
2021/12/22 04:30:33;;;;;;;3.90;3.50;;;23.00;24.90;;;;;;5128215;27;46833;-18
2021/12/22 04:32:59;;;;;;;3.83;3.50;;;23.00;24.90;;;;;;5128479;27;46892;-19
2021/12/22 04:35:26;;;;;;;4.00;3.60;;;23.00;24.90;;;;;;5128242;27;47072;-18
2021/12/22 04:37:54;;;;;;;3.80;3.50;;;23.10;24.90;;;;;;5128178;27;47884;-18
2021/12/22 04:40:21;;;;;;;4.30;3.90;;;23.00;24.80;;;;;;5127915;27;47624;-18
2021/12/22 04:42:48;;;;;;;4.10;3.50;;;23.00;24.90;;;;;;5128105;27;47076;-18
2021/12/22 04:45:15;;;;;;;3.88;3.45;;;23.10;24.80;;;;;;5127463;27;46951;-18
2021/12/22 04:47:42;;;;;;;4.00;3.60;;;23.00;24.80;;;;;;5127704;27;48864;-19
2021/12/22 04:50:16;;;;;;;4.40;3.72;;;23.00;24.90;;;;;;5127753;27;47069;-17
2021/12/22 04:52:49;;;;;;;3.65;3.35;;;22.90;24.90;;;;;;5128018;27;46787;-18
2021/12/22 04:55:17;;;;;;;3.90;3.55;;;22.80;25.00;;;;;;5128258;27;47219;-19
2021/12/22 04:57:44;;;;;;;3.97;3.53;;;22.70;25.10;;;;;;5127997;27;46896;-19
2021/12/22 05:00:12;;;;;;;4.10;3.70;;;22.60;25.10;;;;;;5127815;27;46900;-18
2021/12/22 05:02:39;;;;;;;3.97;3.58;;;22.50;25.20;;;;;;5127750;27;47044;-19
2021/12/22 05:05:07;;;;;;;4.50;4.00;;;22.40;25.30;;;;;;5127809;27;46996;-18
2021/12/22 05:07:33;;;;;;;4.05;3.40;;;22.30;25.30;;;;;;5127626;27;48643;-19
2021/12/22 05:10:00;;;;;;;3.80;3.47;;;22.10;25.40;;;;;;5127456;27;46827;-30
2021/12/22 05:12:28;;;;;;;4.32;3.78;;;22.00;25.50;;;;;;5127746;27;46799;-19
2021/12/22 05:14:55;;;;;;;3.92;3.63;;;21.80;25.50;;;;;;5127621;27;46859;-19
2021/12/22 05:17:26;;;;;;;3.65;3.35;;;21.70;25.60;;;;;;5127466;27;48910;-18
2021/12/22 05:19:52;;;;;;;3.72;3.42;;;21.60;25.70;;;;;;5127312;27;46820;-18
2021/12/22 05:22:19;;;;;;;4.55;4.00;;;21.50;25.80;;;;;;5127527;27;46879;-18
2021/12/22 05:24:46;;;;;;;4.50;4.10;;;21.40;25.90;;;;;;5127478;27;47222;-29
2021/12/22 05:27:13;;;;;;;5.40;4.03;;;21.20;26.00;;;;;;5127479;27;48679;-29
2021/12/22 05:29:41;;;;;;;4.40;4.00;;;21.10;26.20;;;;;;5127095;27;47518;-29
2021/12/22 05:32:08;;;;;;;4.65;3.63;;;21.00;26.30;;;;;;5127789;27;46885;-18
2021/12/22 05:34:35;;;;;;;4.82;4.32;;;20.80;26.30;;;;;;5127266;27;46925;-29
2021/12/22 05:37:02;;;;;;;4.22;3.80;;;20.70;26.80;;;;;;5127034;27;46947;-19
2021/12/22 05:39:28;;;;;;;4.40;4.00;;;20.60;26.50;;;;;;5127231;27;46910;-19
2021/12/22 05:41:57;;;;;;;4.47;4.07;;;20.50;26.60;;;;;;5127205;27;46901;-28
2021/12/22 05:44:24;;;;;;;4.93;4.15;;;20.40;26.80;;;;;;5127357;27;46748;-29
2021/12/22 05:46:52;;;;;;;4.65;4.10;;;20.30;26.90;;;;;;5127192;27;49078;-19
2021/12/22 05:49:19;;;;;;;4.85;4.00;;;20.10;26.90;;;;;;5127053;27;46922;-18
2021/12/22 05:51:46;;;;;;;5.03;4.40;;;20.00;27.00;;;;;;5127170;27;46742;-18
2021/12/22 05:54:13;;;;;;;4.63;4.22;;;19.90;27.10;;;;;;5127159;27;46877;-19
2021/12/22 05:56:39;;;;;;;4.10;3.70;;;19.80;27.20;;;;;;5126736;27;48733;-29
2021/12/22 05:59:06;;;;;;;4.03;3.63;;;19.70;27.40;;;;;;5126632;27;47144;-29
2021/12/22 06:01:33;;;;;;;4.43;4.03;;;19.60;27.40;;;;;;5127114;27;46879;-18
2021/12/22 06:04:02;;;;;;;4.25;3.85;;;19.50;27.50;;;;;;5126943;27;46874;-17
2021/12/22 06:06:29;;;;;;;4.85;4.05;;;19.40;27.60;;;;;;5126725;27;49087;-18
2021/12/22 06:08:55;;;;;;;3.95;3.55;;;19.30;27.70;;;;;;5126888;27;47147;-29
2021/12/22 06:11:22;;;;;;;4.53;3.53;;;19.20;27.80;;;;;;5126745;27;46877;-29
2021/12/22 06:13:49;;;;;;;4.20;3.80;;;19.10;27.90;;;;;;5127022;27;47300;-29
2021/12/22 06:16:16;;;;;;;4.53;3.80;;;19.00;28.00;;;;;;5126857;27;47789;-19
2021/12/22 06:18:44;;;;;;;4.75;4.30;;;18.90;27.90;;;;;;5126350;27;47389;-18
2021/12/22 06:21:13;;;;;;;4.60;4.18;;;18.80;28.00;;;;;;5126552;27;46967;-29
2021/12/22 06:23:40;;;;;;;4.80;3.75;;;18.70;28.20;;;;;;5126934;27;46981;-18
2021/12/22 06:26:07;;;;;;;4.55;3.85;;;18.60;28.20;;;;;;5126470;27;48273;-18
2021/12/22 06:28:34;;;;;;;3.65;3.35;;;18.50;28.30;;;;;;5126758;27;47223;-30
2021/12/22 06:31:00;;;;;;;4.05;3.63;;;18.40;28.40;;;;;;5126192;27;46925;-18
2021/12/22 06:33:27;;;;;;;3.78;3.45;;;18.30;28.40;;;;;;5126115;27;46902;-29
2021/12/22 06:35:54;;;;;;;4.00;3.60;;;18.20;28.50;;;;;;5126532;27;47139;-28
2021/12/22 06:38:22;;;;;;;4.32;3.92;;;18.20;28.50;;;;;;5124940;27;47480;-30
2021/12/22 06:40:49;;;;;;;4.78;3.65;;;18.10;28.70;;;;;;5126030;27;46956;-28
2021/12/22 06:43:16;;;;;;;4.60;4.15;;;18.00;28.60;;;;;;5126513;27;46921;-28
2021/12/22 06:45:42;;;;;;;5.57;4.28;;;17.90;28.70;;;;;;5125571;27;47678;-29
2021/12/22 06:48:09;;;;;;;4.72;4.03;;;17.80;28.70;;;;;;5125928;27;46943;-29
2021/12/22 06:50:37;;;;;;;4.22;3.83;;;17.70;28.70;;;;;;5125125;27;46944;-29
2021/12/22 06:53:03;;;;;;;4.50;4.10;;;17.70;28.80;;;;;;5125886;27;46914;-28
2021/12/22 06:55:32;;;;;;;4.00;3.53;;;17.60;28.80;;;;;;5126041;27;49078;-29
2021/12/22 06:57:59;;;;;;;4.50;3.90;;;17.50;29.00;;;;;;5125956;27;46950;-19
2021/12/22 07:00:26;;;;;;;3.72;3.42;;;17.40;28.90;;;;;;5126021;27;46788;-18
2021/12/22 07:02:54;;;;;;;4.40;4.00;;;17.30;29.00;;;;;;5126191;27;46891;-28
2021/12/22 07:05:20;;;;;;;4.15;3.75;;;17.30;29.10;;;;;;5125473;27;48746;-29
2021/12/22 07:07:47;;;;;;;4.43;4.03;;;17.20;29.10;;;;;;5124418;27;46921;-19
2021/12/22 07:10:14;;;;;;;4.28;3.85;;;17.20;29.10;;;;;;5126934;27;47020;-29
2021/12/22 07:12:42;;;;;;;4.57;3.83;;;17.10;29.10;;;;;;5128936;27;46872;-28
2021/12/22 07:15:12;;;;;;;4.38;4.00;;;17.10;29.20;;;;;;5128738;27;48041;-29
2021/12/22 07:17:39;;;;;;;4.63;3.95;;;17.00;29.20;;;;;;5129016;27;46943;-29
2021/12/22 07:20:07;;;;;;;4.20;3.80;;;17.00;29.30;;;;;;5128667;27;46951;-29
2021/12/22 07:22:34;;;;;;;4.60;4.13;;;16.90;29.20;;;;;;5129234;27;47175;-29
2021/12/22 07:25:00;;;;;;;4.85;4.30;;;16.80;29.30;;;;;;5129177;27;47102;-18
2021/12/22 07:27:27;;;;;;;4.45;4.00;;;16.80;29.30;;;;;;5129162;27;46898;-19
2021/12/22 07:29:55;;;;;;;4.25;3.55;;;16.70;29.30;;;;;;5129304;27;46998;-18
2021/12/22 07:32:22;;;;;;;4.75;4.15;;;16.70;29.30;;;;;;5129356;27;47223;-29
2021/12/22 07:34:51;;;;;;;4.93;3.97;;;16.60;29.40;;;;;;5129383;27;47885;-18
2021/12/22 07:37:20;;;;;;;5.00;3.80;;;16.50;29.30;;;;;;5129247;27;47337;-19
2021/12/22 07:39:47;;;;;;;4.63;4.00;;;16.50;29.50;;;;;;5129075;27;47009;-19
2021/12/22 07:42:13;;;;;;;4.60;3.78;;;16.40;29.40;;;;;;5128937;27;46916;-19
2021/12/22 07:44:41;;;;;;;4.53;3.95;;;16.40;29.50;;;;;;5128402;27;47904;-29
2021/12/22 07:47:10;;;;;;;4.22;3.83;;;16.30;29.50;;;;;;5129327;27;46874;-19
2021/12/22 07:49:37;;;;;;;4.93;4.25;;;16.30;29.60;;;;;;5128732;27;46995;-18
2021/12/22 07:52:04;;;;;;;5.20;4.35;;;16.20;29.60;;;;;;5129325;27;46888;-18
2021/12/22 07:54:31;;;;;;;4.75;4.28;;;16.20;29.70;;;;;;5128859;27;47070;-18
2021/12/22 07:56:58;;;;;;;4.78;3.75;;;16.10;29.70;;;;;;5128974;27;47235;-28
2021/12/22 07:59:24;;;;;;;4.80;4.30;;;16.00;29.70;;;;;;5128509;27;46876;-28
2021/12/22 08:01:51;;;;;;;3.92;3.58;;;16.00;29.70;;;;;;5129097;27;47257;-18
2021/12/22 08:04:19;;;;;;;4.25;3.83;;;16.00;29.80;;;;;;5128446;27;47932;-28
2021/12/22 08:06:46;;;;;;;4.22;3.80;;;15.90;29.80;;;;;;5128527;27;47224;-29
2021/12/22 08:09:12;;;;;;;5.05;3.85;;;15.80;29.90;;;;;;5128346;27;46889;-18
2021/12/22 08:11:39;;;;;;;4.28;3.88;;;15.80;29.90;;;;;;5128903;27;46910;-19
2021/12/22 08:14:06;;;;;;;4.85;3.72;;;15.70;29.90;;;;;;5128266;27;48747;-18
2021/12/22 08:16:32;;;;;;;4.95;4.00;;;15.70;29.90;;;;;;5128669;27;47424;-18
2021/12/22 08:18:59;;;;;;;4.60;4.18;;;15.60;30.00;;;;;;5128642;27;47172;-17
2021/12/22 08:21:27;;;;;;;5.25;3.75;;;15.60;30.00;;;;;;5127662;27;47198;-29
2021/12/22 08:23:54;;;;;;;4.72;3.50;;;15.50;30.00;;;;;;5128499;27;47926;-28
2021/12/22 08:26:21;;;;;;;5.65;3.90;;;15.40;30.00;;;;;;5128591;27;46835;-18
2021/12/22 08:28:49;;;;;;;5.53;4.07;;;15.40;30.00;;;;;;5127854;27;47018;-17
2021/12/22 08:31:15;;;;;;;4.93;3.88;;;15.40;30.10;;;;;;5128729;27;46891;-18
2021/12/22 08:33:45;;;;;;;4.65;4.10;;;15.30;30.10;;;;;;5128201;27;49057;-18
2021/12/22 08:39:00;;;;;;;5.28;4.15;;;15.20;30.30;;;;;;5125437;27;46794;-15
2021/12/22 08:41:28;;;;;;;5.10;4.18;;;15.20;30.30;;;;;;5128556;27;47143;-27
2021/12/22 08:43:56;;;;;;;5.70;4.38;;;15.10;30.30;;;;;;5127736;27;47914;-15
2021/12/22 08:46:23;;;;;;;4.32;3.92;;;15.10;30.30;;;;;;5129655;27;46872;-26
2021/12/22 08:48:49;;;;;;;4.43;4.03;;;15.10;30.40;;;;;;5128607;27;46729;-26
2021/12/22 08:51:16;;;;;;;5.30;4.03;;;15.00;30.30;;;;;;5128334;27;47172;-16
2021/12/22 08:53:43;;;;;;;4.70;4.20;;;15.00;30.30;;;;;;5127952;27;47069;-27
2021/12/22 08:56:11;;;;;;;5.35;4.20;;;15.00;30.40;;;;;;5127904;27;47198;-17
2021/12/22 08:58:38;;;;;;;4.35;3.92;;;15.00;30.40;;;;;;5128049;27;46802;-17
2021/12/22 09:01:04;;;;;;;5.18;4.15;;;14.90;30.40;;;;;;5128061;27;47295;-17
2021/12/22 09:03:32;;;;;;;5.63;4.18;;;14.90;30.40;;;;;;5127647;27;47330;-18
2021/12/22 09:05:59;;;;;;;4.35;3.88;;;14.90;30.50;;;;;;5127788;27;46798;-29
2021/12/22 09:08:26;;;;;;;4.30;3.90;;;14.80;30.50;;;;;;5128020;27;46834;-27
2021/12/22 09:10:52;;;;;;;5.22;4.20;;;14.80;30.50;;;;;;5128325;27;47214;-27
2021/12/22 09:13:20;;;;;;;4.88;4.30;;;14.90;30.60;;;;;;5128095;27;47071;-16
2021/12/22 09:15:47;;;;;;;4.93;4.28;;;14.80;30.50;;;;;;5127624;27;47330;-16
2021/12/22 09:18:14;;;;;;;5.43;4.40;;;14.70;30.50;;;;;;5127889;27;46857;-27
2021/12/22 09:20:41;;;;;;;5.57;4.25;;;14.80;30.50;;;;;;5127802;27;47119;-16
2021/12/22 09:23:07;;;;;;;4.82;3.85;;;14.70;30.60;;;;;;5127635;27;47070;-16
2021/12/22 09:25:34;;;;;;;5.05;4.32;;;14.70;30.50;;;;;;5127649;27;46924;-15
2021/12/22 09:28:01;;;;;;;4.63;3.85;;;14.60;30.60;;;;;;5127751;27;47053;-16
2021/12/22 09:30:35;;;;;;;5.72;4.38;;;14.60;30.70;;;;;;5127485;27;47158;-17
2021/12/22 09:33:02;;;;;;;5.03;4.30;;;14.60;30.70;;;;;;5126779;27;48109;-28
2021/12/22 09:35:29;;;;;;;5.50;4.57;;;14.50;30.80;;;;;;5127364;27;46957;-27
2021/12/22 09:37:56;;;;;;;4.85;4.25;;;14.50;30.80;;;;;;5127489;27;46826;-17
2021/12/22 09:40:23;;;;;;;3.95;3.53;;;14.50;30.80;;;;;;5127211;27;46883;-16
2021/12/22 09:42:49;;;;;;;4.72;3.95;;;14.50;30.80;;;;;;5127053;27;48069;-27
2021/12/22 09:45:19;;;;;;;5.38;4.22;;;14.40;30.90;;;;;;5126832;27;47064;-15
2021/12/22 09:48:03;;;;;;;7.05;4.45;;;14.40;30.90;;;;;;5127240;27;46873;-16
2021/12/22 09:50:47;;;;;;;6.32;4.80;;;14.40;30.90;;;;;;5126657;27;46922;-15
2021/12/22 09:53:14;;;;;;;9.48;4.70;;;14.30;30.70;;;;;;5126228;27;47059;-27
2021/12/22 09:55:40;;;;;;;5.97;4.93;;;14.10;30.80;;;;;;5126084;27;47041;-16
2021/12/22 09:58:09;;;;;;;7.82;5.65;;;14.10;31.00;;;;;;5125938;27;46849;-16
2021/12/22 10:00:36;;;;;;;6.20;4.87;;;14.00;31.10;;;;;;5126100;27;46928;-27
2021/12/22 10:03:05;;;;;;;8.40;5.68;;;13.90;31.20;;;;;;5126936;27;48200;-15
2021/12/22 10:05:32;;;;;;;7.90;5.30;;;13.80;31.30;;;;;;5127167;27;47140;-16
2021/12/22 10:08:06;;;;;;;6.07;5.17;;;13.70;31.40;;;;;;5127113;27;46776;-27
2021/12/22 10:10:32;;;;;;;8.30;5.47;;;13.80;31.60;;;;;;5126707;27;46807;-27
2021/12/22 10:13:05;;;;;;;6.10;5.33;;;13.70;31.80;;;;;;5126960;27;46954;-17
2021/12/22 10:15:32;;;;;;;6.03;5.27;;;13.70;31.80;;;;;;5126687;27;47496;-15
2021/12/22 10:18:08;;;;;;;5.70;5.13;;;13.70;31.90;;;;;;5126936;27;46883;-27
2021/12/22 10:20:35;;;;;;;5.83;4.87;;;13.60;32.00;;;;;;5126689;27;47200;-16
2021/12/22 10:23:02;;;;;;;8.07;5.90;;;13.60;32.00;;;;;;5126590;27;48729;-27
2021/12/22 10:25:31;;;;;;;5.33;4.80;;;13.60;32.10;;;;;;5126833;27;46966;-27
2021/12/22 10:28:00;;;;;;;7.07;5.20;;;13.60;32.20;;;;;;5126601;27;46829;-27
2021/12/22 10:30:31;;;;;;;9.53;5.37;;;13.60;32.60;;;;;;5126847;27;47279;-16
2021/12/22 10:33:08;;;;;;;6.60;4.93;;;13.60;32.90;;;;;;5126523;27;48191;-27
2021/12/22 10:35:37;;;;;;;8.17;5.27;;;13.60;32.70;;;;;;5126571;27;46835;-29
2021/12/22 10:38:04;;;;;;;6.80;5.47;;;13.70;33.00;;;;;;5126906;27;46892;-17
2021/12/22 10:40:32;;;;;;;8.73;5.37;;;13.70;32.90;;;;;;5126375;27;47079;-17
2021/12/22 10:42:58;;;;;;;7.33;5.57;;;13.70;33.10;;;;;;5119302;27;48044;-27
2021/12/22 10:45:26;;;;;;;8.97;5.20;;;13.80;33.00;;;;;;5129043;27;46954;-27
2021/12/22 10:50:39;;;;;;;10.27;6.00;;;13.80;32.40;;;;;;5126088;27;47344;-19
2021/12/22 10:53:07;;;;;;;12.57;6.13;;;13.80;32.60;;;;;;5125258;27;49109;-27
2021/12/22 10:55:37;;;;;;;7.23;5.70;;;13.80;32.70;;;;;;5127447;27;47565;-17
2021/12/22 10:58:17;;;;;;;6.13;5.23;;;13.90;32.80;;;;;;5128700;27;46930;-17
2021/12/22 11:00:45;;;;;;;11.07;5.53;;;13.90;32.60;;;;;;5128718;27;47021;-27
2021/12/22 11:03:14;;;;;;;7.60;5.70;;;13.90;32.80;;;;;;5129137;27;47062;-28
2021/12/22 11:05:45;;;;;;;7.73;4.83;;;13.90;33.10;;;;;;5129245;27;46898;-28
2021/12/22 11:08:19;;;;;;;11.20;6.20;;;14.00;33.10;;;;;;5130080;27;47191;-27
2021/12/22 11:10:45;;;;;;;6.67;5.17;;;14.10;32.70;;;;;;5129300;27;46905;-17
2021/12/22 11:13:12;;;;;;;6.93;5.43;;;14.30;32.50;;;;;;5130030;27;49066;-17
2021/12/22 11:15:43;;;;;;;8.53;6.13;;;14.40;32.40;;;;;;5129068;27;47070;-28
2021/12/22 11:18:10;;;;;;;11.07;5.93;;;14.50;32.10;;;;;;5128533;27;46942;-27
2021/12/22 11:20:37;;;;;;;13.73;5.50;;;14.60;32.20;;;;;;5129721;27;46829;-16
2021/12/22 11:23:12;;;;;;;8.83;5.63;;;14.60;32.20;;;;;;5128732;27;48868;-18
2021/12/22 11:25:40;;;;;;;6.47;5.63;;;14.70;31.80;;;;;;5129217;27;46854;-28
2021/12/22 11:28:07;;;;;;;8.83;5.90;;;14.80;31.70;;;;;;5128020;27;46931;-17
2021/12/22 11:30:34;;;;;;;8.40;5.30;;;14.70;31.80;;;;;;5128272;27;46794;-28
2021/12/22 11:33:00;;;;;;;7.20;5.77;;;14.80;31.60;;;;;;5129207;27;47002;-27
2021/12/22 11:35:27;;;;;;;7.47;5.57;;;14.80;31.60;;;;;;5129283;27;46872;-16
2021/12/22 11:37:54;;;;;;;8.00;5.70;;;14.80;31.50;;;;;;5129035;27;46848;-16
2021/12/22 11:40:24;;;;;;;7.33;5.43;;;14.80;31.50;;;;;;5128941;27;47283;-16
2021/12/22 11:42:51;;;;;;;8.27;5.53;;;14.90;31.50;;;;;;5129236;27;48106;-28
2021/12/22 11:45:19;;;;;;;6.80;5.40;;;14.90;31.30;;;;;;5128416;27;47018;-17
2021/12/22 11:47:47;;;;;;;8.00;5.63;;;14.90;31.40;;;;;;5128983;27;46841;-17
2021/12/22 11:50:17;;;;;;;7.97;5.37;;;15.00;31.50;;;;;;5128764;27;46895;-17
2021/12/22 11:52:53;;;;;;;7.87;5.50;;;15.10;31.60;;;;;;5128643;27;48126;-17
2021/12/22 11:55:22;;;;;;;10.30;5.60;;;15.10;31.50;;;;;;5127777;27;47306;-27
2021/12/22 11:57:50;;;;;;;9.53;5.70;;;15.10;31.20;;;;;;5127431;27;47138;-28
2021/12/22 12:00:27;;;;;;;10.40;5.47;;;15.10;31.40;;;;;;5128025;27;46996;-28
2021/12/22 12:02:54;;;;;;;6.60;4.93;;;15.20;31.20;;;;;;5127855;27;47991;-29
2021/12/22 12:05:22;;;;;;;7.90;5.60;;;15.20;31.60;;;;;;5127166;27;46903;-28
2021/12/22 12:07:51;;;;;;;7.57;5.00;;;15.00;31.10;;;;;;5126845;27;47024;-17
2021/12/22 12:10:43;;;;;;;7.77;5.30;;;14.90;31.20;;;;;;5127421;27;47308;-28
2021/12/22 12:13:18;;;;;;;6.10;5.10;;;14.70;31.50;;;;;;5126926;27;48055;-17
2021/12/22 12:22:04;;;;;;;5.77;4.87;;;14.90;31.10;;;;;;5125906;27;46917;-27
2021/12/22 12:25:16;;;;;;;5.20;4.47;;;14.90;30.80;;;;;;5128577;27;48095;-18
2021/12/22 12:27:46;;;;;;;8.67;4.93;;;14.90;31.10;;;;;;5128145;27;46816;-28
2021/12/22 12:30:15;;;;;;;6.80;4.73;;;14.70;31.10;;;;;;5128109;27;46907;-18
2021/12/22 12:33:01;;;;;;;5.57;4.57;;;14.60;31.30;;;;;;5128563;27;46938;-28
2021/12/22 12:35:28;;;;;;;5.63;4.67;;;14.50;31.50;;;;;;5128287;27;47555;-18
2021/12/22 12:37:59;;;;;;;6.10;4.50;;;14.40;31.60;;;;;;5128428;27;47215;-28
2021/12/22 12:40:39;;;;;;;9.40;4.53;;;14.30;31.80;;;;;;5128426;27;47036;-18
2021/12/22 12:43:07;;;;;;;5.17;4.67;;;14.20;31.90;;;;;;5128314;27;46959;-28
2021/12/22 12:45:41;;;;;;;6.37;4.70;;;14.10;32.10;;;;;;5127648;27;48210;-17
2021/12/22 12:48:26;;;;;;;5.17;4.67;;;14.00;32.10;;;;;;5128197;27;46965;-28
2021/12/22 12:51:13;;;;;;;5.20;4.30;;;14.00;32.30;;;;;;5128461;27;46953;-28
2021/12/22 12:53:40;;;;;;;5.93;4.33;;;13.90;32.40;;;;;;5128714;27;46946;-17
2021/12/22 12:56:08;;;;;;;6.07;4.40;;;13.90;32.40;;;;;;5127533;27;48881;-28
2021/12/22 12:58:36;;;;;;;4.57;4.13;;;13.80;32.50;;;;;;5127758;27;47101;-28
2021/12/22 13:01:03;;;;;;;5.20;4.30;;;13.80;32.60;;;;;;5127339;27;46952;-28
2021/12/22 13:03:46;;;;;;;4.70;4.20;;;13.70;32.60;;;;;;5128185;27;47284;-18
2021/12/22 13:06:13;;;;;;;5.93;4.40;;;13.70;32.70;;;;;;5127469;27;47844;-28
2021/12/22 13:08:39;;;;;;;7.37;4.63;;;13.60;32.70;;;;;;5120781;27;47032;-18